sensor_id;sensor_type;location;lat;lon;timestamp;pressure;altitude;pressure_sealevel;temperature;humidity
76046;BME280;64741;41.730;44.788;2023-08-17T00:00:59;990;;;32.5;33.7
76046;BME280;64741;41.730;44.788;2023-08-17T00:05:53;990;;;32.5;33.6
76046;BME280;64741;41.730;44.788;2023-08-17T00:10:37;990;;;32.5;33.5
76046;BME280;64741;41.730;44.788;2023-08-17T00:16:01;990;;;32.3;33.7
76046;BME280;64741;41.730;44.788;2023-08-17T00:21:01;990;;;32.2;33.7
76046;BME280;64741;41.730;44.788;2023-08-17T00:26:01;990;;;32.2;33.8
76046;BME280;64741;41.730;44.788;2023-08-17T00:30:55;990.1;;;32.1;33.9
76046;BME280;64741;41.730;44.788;2023-08-17T00:36:01;990;;;32;34
76046;BME280;64741;41.730;44.788;2023-08-17T00:40:55;990;;;32;34.2
76046;BME280;64741;41.730;44.788;2023-08-17T00:46:01;990;;;31.9;34.1
76046;BME280;64741;41.730;44.788;2023-08-17T00:50:55;990.1;;;31.8;34.1
76046;BME280;64741;41.730;44.788;2023-08-17T00:55:53;990.1;;;31.7;34.1
76046;BME280;64741;41.730;44.788;2023-08-17T01:00:59;990.1;;;31.7;34.2
76046;BME280;64741;41.730;44.788;2023-08-17T01:05:59;990.1;;;31.8;34.2
76046;BME280;64741;41.730;44.788;2023-08-17T01:11:02;990.1;;;31.8;34.4
76046;BME280;64741;41.730;44.788;2023-08-17T01:15:56;990.1;;;31.8;34.3
76046;BME280;64741;41.730;44.788;2023-08-17T01:21:02;990.1;;;31.9;34.4
76046;BME280;64741;41.730;44.788;2023-08-17T01:26:03;990.1;;;31.9;34.4
76046;BME280;64741;41.730;44.788;2023-08-17T01:30:55;990.1;;;31.9;34.2
76046;BME280;64741;41.730;44.788;2023-08-17T01:35:58;990.1;;;31.9;34.3
76046;BME280;64741;41.730;44.788;2023-08-17T01:40:49;990.1;;;31.8;34.4
76046;BME280;64741;41.730;44.788;2023-08-17T01:45:55;990.1;;;31.9;34.4
76046;BME280;64741;41.730;44.788;2023-08-17T01:50:47;990.1;;;31.8;34.5
76046;BME280;64741;41.730;44.788;2023-08-17T01:55:59;990.1;;;31.8;34.7
76046;BME280;64741;41.730;44.788;2023-08-17T02:00:53;990.1;;;31.8;34.6
76046;BME280;64741;41.730;44.788;2023-08-17T02:05:45;990.1;;;31.9;34.4
76046;BME280;64741;41.730;44.788;2023-08-17T02:10:55;990.1;;;31.9;34.4
76046;BME280;64741;41.730;44.788;2023-08-17T02:15:53;990.2;;;32;34.4
76046;BME280;64741;41.730;44.788;2023-08-17T02:21:01;990.2;;;32;34.4
76046;BME280;64741;41.730;44.788;2023-08-17T02:25:53;990.2;;;32;34.4
76046;BME280;64741;41.730;44.788;2023-08-17T02:31:01;990.1;;;32;34.1
76046;BME280;64741;41.730;44.788;2023-08-17T02:35:53;990.2;;;31.8;34
76046;BME280;64741;41.730;44.788;2023-08-17T02:40:53;990.1;;;31.8;34.2
76046;BME280;64741;41.730;44.788;2023-08-17T02:45:53;990.2;;;31.9;34.1
76046;BME280;64741;41.730;44.788;2023-08-17T02:50:51;990.1;;;31.8;34
76046;BME280;64741;41.730;44.788;2023-08-17T02:55:59;990.2;;;31.8;34
76046;BME280;64741;41.730;44.788;2023-08-17T03:00:55;990.2;;;31.8;33.9
76046;BME280;64741;41.730;44.788;2023-08-17T03:06:01;990.2;;;31.8;33.8
76046;BME280;64741;41.730;44.788;2023-08-17T03:10:53;990.2;;;31.8;33.9
76046;BME280;64741;41.730;44.788;2023-08-17T03:15:59;990.2;;;31.8;33.8
76046;BME280;64741;41.730;44.788;2023-08-17T03:20:47;990.3;;;31.8;33.8
76046;BME280;64741;41.730;44.788;2023-08-17T03:25:53;990.3;;;31.8;33.7
76046;BME280;64741;41.730;44.788;2023-08-17T03:30:55;990.3;;;31.7;33.7
76046;BME280;64741;41.730;44.788;2023-08-17T03:35:59;990.3;;;31.6;33.8
76046;BME280;64741;41.730;44.788;2023-08-17T03:40:46;990.4;;;31.5;34.1
76046;BME280;64741;41.730;44.788;2023-08-17T03:45:32;990.3;;;31.5;34.2
76046;BME280;64741;41.730;44.788;2023-08-17T04:01:01;990.3;;;30.6;35.7
76046;BME280;64741;41.730;44.788;2023-08-17T04:05:55;990.3;;;30.7;35.9
76046;BME280;64741;41.730;44.788;2023-08-17T04:10:53;990.2;;;31;35.5
76046;BME280;64741;41.730;44.788;2023-08-17T04:16:01;990.2;;;31.2;35.2
76046;BME280;64741;41.730;44.788;2023-08-17T04:20:41;990.2;;;31.3;35.1
76046;BME280;64741;41.730;44.788;2023-08-17T04:25:59;990.1;;;31.4;35.1
76046;BME280;64741;41.730;44.788;2023-08-17T04:30:53;990.1;;;31.5;35
76046;BME280;64741;41.730;44.788;2023-08-17T04:35:59;990.1;;;31.6;35
76046;BME280;64741;41.730;44.788;2023-08-17T04:41:01;990.1;;;31.7;34.9
76046;BME280;64741;41.730;44.788;2023-08-17T04:45:59;990.1;;;31.8;34.9
76046;BME280;64741;41.730;44.788;2023-08-17T04:51:01;990.1;;;31.8;34.7
76046;BME280;64741;41.730;44.788;2023-08-17T04:55:55;990.1;;;31.8;34.4
76046;BME280;64741;41.730;44.788;2023-08-17T05:00:59;990.1;;;31.9;34.7
76046;BME280;64741;41.730;44.788;2023-08-17T05:05:53;990.1;;;31.9;34.4
76046;BME280;64741;41.730;44.788;2023-08-17T05:10:51;990.1;;;31.9;34.3
76046;BME280;64741;41.730;44.788;2023-08-17T05:15:53;990.1;;;31.9;34.1
76046;BME280;64741;41.730;44.788;2023-08-17T05:20:27;990.1;;;31.9;34
76046;BME280;64741;41.730;44.788;2023-08-17T05:25:59;990;;;31.9;33.4
76046;BME280;64741;41.730;44.788;2023-08-17T05:31:02;990;;;31.9;33.4
76046;BME280;64741;41.730;44.788;2023-08-17T05:36:01;990;;;31.9;33.1
76046;BME280;64741;41.730;44.788;2023-08-17T05:40:55;990;;;32;32.7
76046;BME280;64741;41.730;44.788;2023-08-17T05:45:59;990;;;32;32.7
76046;BME280;64741;41.730;44.788;2023-08-17T05:51:01;990;;;32;32.2
76046;BME280;64741;41.730;44.788;2023-08-17T05:56:01;990;;;31.9;31.9
76046;BME280;64741;41.730;44.788;2023-08-17T06:00:26;990;;;31.9;32.2
76046;BME280;64741;41.730;44.788;2023-08-17T06:05:57;990.1;;;32;32
76046;BME280;64741;41.730;44.788;2023-08-17T06:10:55;990;;;32;31.5
76046;BME280;64741;41.730;44.788;2023-08-17T06:15:57;990;;;32;31.2
76046;BME280;64741;41.730;44.788;2023-08-17T06:20:59;990;;;32;31.1
76046;BME280;64741;41.730;44.788;2023-08-17T06:25:56;990;;;32;31.4
76046;BME280;64741;41.730;44.788;2023-08-17T06:30:59;990;;;32.1;31.4
76046;BME280;64741;41.730;44.788;2023-08-17T06:35:55;989.9;;;32.1;31.1
76046;BME280;64741;41.730;44.788;2023-08-17T06:40:53;989.9;;;32.2;30.9
76046;BME280;64741;41.730;44.788;2023-08-17T06:46:01;989.8;;;32.2;30.1
76046;BME280;64741;41.730;44.788;2023-08-17T06:50:55;989.8;;;32.2;30.3
76046;BME280;64741;41.730;44.788;2023-08-17T06:55:45;989.8;;;32.2;30.6
76046;BME280;64741;41.730;44.788;2023-08-17T07:00:53;989.7;;;32.3;30.2
76046;BME280;64741;41.730;44.788;2023-08-17T07:05:53;989.6;;;32.3;30.1
76046;BME280;64741;41.730;44.788;2023-08-17T07:10:53;989.6;;;32.3;30.2
76046;BME280;64741;41.730;44.788;2023-08-17T07:15:53;989.5;;;32.4;30.2
76046;BME280;64741;41.730;44.788;2023-08-17T07:20:43;989.5;;;32.5;29.7
76046;BME280;64741;41.730;44.788;2023-08-17T07:25:51;989.5;;;32.5;30
76046;BME280;64741;41.730;44.788;2023-08-17T07:31:03;989.4;;;32.5;29.8
76046;BME280;64741;41.730;44.788;2023-08-17T07:35:45;989.4;;;32.6;29.9
76046;BME280;64741;41.730;44.788;2023-08-17T07:41:01;989.3;;;32.6;29.8
76046;BME280;64741;41.730;44.788;2023-08-17T07:46:01;989.2;;;32.7;29.9
76046;BME280;64741;41.730;44.788;2023-08-17T07:50:53;989.2;;;32.7;29.9
76046;BME280;64741;41.730;44.788;2023-08-17T07:55:55;989.1;;;32.7;29.8
76046;BME280;64741;41.730;44.788;2023-08-17T08:00:59;989.1;;;32.8;29.8
76046;BME280;64741;41.730;44.788;2023-08-17T08:05:59;989;;;32.8;30.7
76046;BME280;64741;41.730;44.788;2023-08-17T08:10:53;988.9;;;32.8;31.1
76046;BME280;64741;41.730;44.788;2023-08-17T08:15:47;988.8;;;32.8;31.5
76046;BME280;64741;41.730;44.788;2023-08-17T08:21:01;988.8;;;32.8;31.5
76046;BME280;64741;41.730;44.788;2023-08-17T08:26:01;988.7;;;32.8;31.2
76046;BME280;64741;41.730;44.788;2023-08-17T08:31:00;988.6;;;32.8;31.1
76046;BME280;64741;41.730;44.788;2023-08-17T08:35:41;988.6;;;32.9;31.3
76046;BME280;64741;41.730;44.788;2023-08-17T08:41:01;988.5;;;33;31.5
76046;BME280;64741;41.730;44.788;2023-08-17T08:45:55;988.5;;;33.1;31.6
76046;BME280;64741;41.730;44.788;2023-08-17T08:51:00;988.4;;;33.1;31.9
76046;BME280;64741;41.730;44.788;2023-08-17T08:55:54;988.4;;;33.2;31.9
76046;BME280;64741;41.730;44.788;2023-08-17T09:00:52;988.3;;;33.2;31.5
76046;BME280;64741;41.730;44.788;2023-08-17T09:06:01;988.2;;;33.2;30.9
76046;BME280;64741;41.730;44.788;2023-08-17T09:10:53;988.2;;;33.2;30.4
76046;BME280;64741;41.730;44.788;2023-08-17T09:15:53;988.1;;;33.1;30.3
76046;BME280;64741;41.730;44.788;2023-08-17T09:20:53;988;;;33.1;30.8
76046;BME280;64741;41.730;44.788;2023-08-17T09:26:05;988;;;33.2;30.7
76046;BME280;64741;41.730;44.788;2023-08-17T09:30:50;988;;;33.2;30.5
76046;BME280;64741;41.730;44.788;2023-08-17T09:35:59;987.9;;;33.2;30.4
76046;BME280;64741;41.730;44.788;2023-08-17T09:40:48;987.8;;;33.2;30.3
76046;BME280;64741;41.730;44.788;2023-08-17T09:45:53;987.8;;;33.3;30.3
76046;BME280;64741;41.730;44.788;2023-08-17T09:50:44;987.8;;;33.3;30.3
76046;BME280;64741;41.730;44.788;2023-08-17T09:55:59;987.7;;;33.3;30.3
76046;BME280;64741;41.730;44.788;2023-08-17T10:01:03;987.7;;;33.3;30.3
76046;BME280;64741;41.730;44.788;2023-08-17T10:05:57;987.6;;;33.3;30.4
76046;BME280;64741;41.730;44.788;2023-08-17T10:10:59;987.6;;;33.3;30.4
76046;BME280;64741;41.730;44.788;2023-08-17T10:16:02;987.5;;;33.3;30.4
76046;BME280;64741;41.730;44.788;2023-08-17T10:21:02;987.5;;;33.4;30.4
76046;BME280;64741;41.730;44.788;2023-08-17T10:25:55;987.4;;;33.4;30.4
76046;BME280;64741;41.730;44.788;2023-08-17T10:30:49;987.3;;;33.4;30.4
76046;BME280;64741;41.730;44.788;2023-08-17T10:35:55;987.3;;;33.4;30.6
76046;BME280;64741;41.730;44.788;2023-08-17T10:41:11;987.2;;;33.4;30.9
76046;BME280;64741;41.730;44.788;2023-08-17T10:45:54;987.1;;;33.4;30.8
76046;BME280;64741;41.730;44.788;2023-08-17T10:51:02;987;;;33.3;30.8
76046;BME280;64741;41.730;44.788;2023-08-17T10:55:59;986.9;;;33.3;30.6
76046;BME280;64741;41.730;44.788;2023-08-17T11:00:55;986.9;;;33.3;30.3
76046;BME280;64741;41.730;44.788;2023-08-17T11:05:54;986.8;;;33.3;30.1
76046;BME280;64741;41.730;44.788;2023-08-17T11:10:59;986.8;;;33.3;29.9
76046;BME280;64741;41.730;44.788;2023-08-17T11:15:56;986.7;;;33.2;29.7
76046;BME280;64741;41.730;44.788;2023-08-17T11:21:02;986.6;;;33.2;29.5
76046;BME280;64741;41.730;44.788;2023-08-17T11:25:53;986.6;;;33.2;29.8
76046;BME280;64741;41.730;44.788;2023-08-17T11:30:57;986.5;;;33.2;30
76046;BME280;64741;41.730;44.788;2023-08-17T11:35:39;986.5;;;33.3;30.4
76046;BME280;64741;41.730;44.788;2023-08-17T11:40:53;986.4;;;33.3;30.4
76046;BME280;64741;41.730;44.788;2023-08-17T11:46:00;986.3;;;33.3;30.4
76046;BME280;64741;41.730;44.788;2023-08-17T11:50:59;986.3;;;33.3;30.3
76046;BME280;64741;41.730;44.788;2023-08-17T11:56:01;986.3;;;33.4;30.2
76046;BME280;64741;41.730;44.788;2023-08-17T12:00:54;986.2;;;33.4;30.1
76046;BME280;64741;41.730;44.788;2023-08-17T12:05:59;986.1;;;33.4;30.3
76046;BME280;64741;41.730;44.788;2023-08-17T12:10:45;986.1;;;33.4;30.2
76046;BME280;64741;41.730;44.788;2023-08-17T12:15:55;986;;;33.5;30.1
76046;BME280;64741;41.730;44.788;2023-08-17T12:20:57;986;;;33.5;30.2
76046;BME280;64741;41.730;44.788;2023-08-17T12:25:59;985.9;;;33.5;30.2
76046;BME280;64741;41.730;44.788;2023-08-17T12:31:02;985.9;;;33.5;30.3
76046;BME280;64741;41.730;44.788;2023-08-17T12:35:56;985.9;;;33.5;30.4
76046;BME280;64741;41.730;44.788;2023-08-17T12:41:00;985.8;;;33.5;30.3
76046;BME280;64741;41.730;44.788;2023-08-17T12:46:02;985.7;;;33.5;30.3
76046;BME280;64741;41.730;44.788;2023-08-17T12:51:00;985.7;;;33.6;30.4
76046;BME280;64741;41.730;44.788;2023-08-17T12:55:54;985.7;;;33.6;30.3
76046;BME280;64741;41.730;44.788;2023-08-17T13:00:52;985.6;;;33.6;30
76046;BME280;64741;41.730;44.788;2023-08-17T13:06:02;985.6;;;33.6;30.1
76046;BME280;64741;41.730;44.788;2023-08-17T13:10:42;985.6;;;33.6;30
76046;BME280;64741;41.730;44.788;2023-08-17T13:15:52;985.6;;;33.6;29.6
76046;BME280;64741;41.730;44.788;2023-08-17T13:20:46;985.6;;;33.6;29.1
76046;BME280;64741;41.730;44.788;2023-08-17T13:26:00;985.5;;;33.6;29
76046;BME280;64741;41.730;44.788;2023-08-17T13:30:34;985.5;;;33.6;29
76046;BME280;64741;41.730;44.788;2023-08-17T13:35:26;985.5;;;33.6;28.8
76046;BME280;64741;41.730;44.788;2023-08-17T13:41:03;985.5;;;33.7;28.4
76046;BME280;64741;41.730;44.788;2023-08-17T13:45:52;985.5;;;33.7;28.6
76046;BME280;64741;41.730;44.788;2023-08-17T13:50:48;985.5;;;33.7;29.8
76046;BME280;64741;41.730;44.788;2023-08-17T13:55:54;985.4;;;33.7;29.5
76046;BME280;64741;41.730;44.788;2023-08-17T14:00:58;985.4;;;33.7;28.2
76046;BME280;64741;41.730;44.788;2023-08-17T14:05:56;985.4;;;33.7;27.9
76046;BME280;64741;41.730;44.788;2023-08-17T14:10:54;985.4;;;33.8;27.6
76046;BME280;64741;41.730;44.788;2023-08-17T14:16:00;985.4;;;33.8;27.3
76046;BME280;64741;41.730;44.788;2023-08-17T14:21:00;985.4;;;33.8;27.3
76046;BME280;64741;41.730;44.788;2023-08-17T14:26:02;985.4;;;33.8;27.3
76046;BME280;64741;41.730;44.788;2023-08-17T14:30:56;985.5;;;33.8;27.3
76046;BME280;64741;41.730;44.788;2023-08-17T14:36:02;985.5;;;33.8;26.7
76046;BME280;64741;41.730;44.788;2023-08-17T14:41:02;985.5;;;33.8;27.1
76046;BME280;64741;41.730;44.788;2023-08-17T14:45:54;985.5;;;33.8;27
76046;BME280;64741;41.730;44.788;2023-08-17T14:50:56;985.5;;;33.8;26.4
76046;BME280;64741;41.730;44.788;2023-08-17T14:56:00;985.6;;;33.8;26.8
76046;BME280;64741;41.730;44.788;2023-08-17T15:01:02;985.6;;;33.9;27.1
76046;BME280;64741;41.730;44.788;2023-08-17T15:05:56;985.6;;;33.8;27
76046;BME280;64741;41.730;44.788;2023-08-17T15:11:00;985.7;;;33.8;27
76046;BME280;64741;41.730;44.788;2023-08-17T15:15:52;985.7;;;33.7;27.1
76046;BME280;64741;41.730;44.788;2023-08-17T15:21:02;985.7;;;33.7;27.1
76046;BME280;64741;41.730;44.788;2023-08-17T15:25:56;985.8;;;33.7;26.9
76046;BME280;64741;41.730;44.788;2023-08-17T15:31:00;985.8;;;33.7;26.6
76046;BME280;64741;41.730;44.788;2023-08-17T15:35:48;985.9;;;33.7;26.4
76046;BME280;64741;41.730;44.788;2023-08-17T15:40:58;986;;;33.7;26.4
76046;BME280;64741;41.730;44.788;2023-08-17T15:46:00;986;;;33.7;26.5
76046;BME280;64741;41.730;44.788;2023-08-17T15:50:54;986.1;;;33.7;26.9
76046;BME280;64741;41.730;44.788;2023-08-17T15:56:02;986.1;;;33.7;27.2
76046;BME280;64741;41.730;44.788;2023-08-17T16:00:58;986.2;;;33.7;27.4
76046;BME280;64741;41.730;44.788;2023-08-17T16:05:56;986.3;;;33.7;27.6
76046;BME280;64741;41.730;44.788;2023-08-17T16:10:50;986.3;;;33.7;27.9
76046;BME280;64741;41.730;44.788;2023-08-17T16:16:00;986.4;;;33.7;28.1
76046;BME280;64741;41.730;44.788;2023-08-17T16:21:02;986.4;;;33.7;28.4
76046;BME280;64741;41.730;44.788;2023-08-17T16:25:58;986.4;;;33.7;28.6
76046;BME280;64741;41.730;44.788;2023-08-17T16:30:58;986.5;;;33.7;28.7
76046;BME280;64741;41.730;44.788;2023-08-17T16:35:58;986.5;;;33.7;28.7
76046;BME280;64741;41.730;44.788;2023-08-17T16:40:56;986.5;;;33.7;28.8
76046;BME280;64741;41.730;44.788;2023-08-17T16:45:48;986.6;;;33.7;28.8
76046;BME280;64741;41.730;44.788;2023-08-17T16:51:00;986.7;;;33.7;29
76046;BME280;64741;41.730;44.788;2023-08-17T16:56:02;986.8;;;33.7;29.1
76046;BME280;64741;41.730;44.788;2023-08-17T17:00:44;986.9;;;33.7;29.3
76046;BME280;64741;41.730;44.788;2023-08-17T17:06:02;987;;;33.7;29.4
76046;BME280;64741;41.730;44.788;2023-08-17T17:11:02;987.1;;;33.7;29.4
76046;BME280;64741;41.730;44.788;2023-08-17T17:15:56;987.1;;;33.7;29.5
76046;BME280;64741;41.730;44.788;2023-08-17T17:21:00;987.2;;;33.7;29.5
76046;BME280;64741;41.730;44.788;2023-08-17T17:26:02;987.3;;;33.7;29.5
76046;BME280;64741;41.730;44.788;2023-08-17T17:31:02;987.3;;;33.6;29.4
76046;BME280;64741;41.730;44.788;2023-08-17T17:35:56;987.4;;;33.6;29
76046;BME280;64741;41.730;44.788;2023-08-17T17:41:02;987.5;;;33.6;29.2
76046;BME280;64741;41.730;44.788;2023-08-17T17:46:04;987.5;;;33.6;29.5
76046;BME280;64741;41.730;44.788;2023-08-17T17:51:04;987.6;;;33.6;29.5
76046;BME280;64741;41.730;44.788;2023-08-17T17:56:00;987.7;;;33.6;28.6
76046;BME280;64741;41.730;44.788;2023-08-17T18:00:56;987.8;;;33.5;28.3
76046;BME280;64741;41.730;44.788;2023-08-17T18:06:00;987.9;;;33.5;28.3
76046;BME280;64741;41.730;44.788;2023-08-17T18:11:00;987.9;;;33.5;28.6
76046;BME280;64741;41.730;44.788;2023-08-17T18:15:46;987.9;;;33.5;29
76046;BME280;64741;41.730;44.788;2023-08-17T18:20:58;987.9;;;33.5;29
76046;BME280;64741;41.730;44.788;2023-08-17T18:26:02;988;;;33.5;28.9
76046;BME280;64741;41.730;44.788;2023-08-17T18:31:04;988;;;33.5;28.9
76046;BME280;64741;41.730;44.788;2023-08-17T18:36:02;988;;;33.4;28.9
76046;BME280;64741;41.730;44.788;2023-08-17T18:41:05;988;;;33.4;28.9
76046;BME280;64741;41.730;44.788;2023-08-17T18:46:00;988.1;;;33.4;28.8
76046;BME280;64741;41.730;44.788;2023-08-17T18:50:48;988.1;;;33.4;28.6
76046;BME280;64741;41.730;44.788;2023-08-17T18:56:00;988.1;;;33.4;28.4
76046;BME280;64741;41.730;44.788;2023-08-17T19:01:04;988.1;;;33.4;28.5
76046;BME280;64741;41.730;44.788;2023-08-17T19:06:04;988.2;;;33.3;28.4
76046;BME280;64741;41.730;44.788;2023-08-17T19:10:58;988.2;;;33.3;28.9
76046;BME280;64741;41.730;44.788;2023-08-17T19:15:50;988.2;;;33.3;28.9
76046;BME280;64741;41.730;44.788;2023-08-17T19:21:02;988.3;;;33.3;28.9
76046;BME280;64741;41.730;44.788;2023-08-17T19:26:02;988.3;;;33.3;28.9
76046;BME280;64741;41.730;44.788;2023-08-17T19:30:58;988.3;;;33.3;28.8
76046;BME280;64741;41.730;44.788;2023-08-17T19:36:02;988.3;;;33.3;28.7
76046;BME280;64741;41.730;44.788;2023-08-17T19:40:58;988.3;;;33.3;28.9
76046;BME280;64741;41.730;44.788;2023-08-17T19:46:02;988.4;;;33.3;28.9
76046;BME280;64741;41.730;44.788;2023-08-17T19:51:00;988.4;;;33.3;28.8
76046;BME280;64741;41.730;44.788;2023-08-17T19:55:58;988.3;;;33.2;28.9
76046;BME280;64741;41.730;44.788;2023-08-17T20:00:50;988.4;;;33.2;28.9
76046;BME280;64741;41.730;44.788;2023-08-17T20:05:58;988.4;;;33.2;29
76046;BME280;64741;41.730;44.788;2023-08-17T20:11:06;988.4;;;33.2;29
76046;BME280;64741;41.730;44.788;2023-08-17T20:15:56;988.4;;;33.2;29
76046;BME280;64741;41.730;44.788;2023-08-17T20:21:02;988.5;;;33.2;29
76046;BME280;64741;41.730;44.788;2023-08-17T20:25:58;988.6;;;33.2;28.8
76046;BME280;64741;41.730;44.788;2023-08-17T20:30:58;988.6;;;33.1;28.8
76046;BME280;64741;41.730;44.788;2023-08-17T20:36:02;988.6;;;33.1;28.9
76046;BME280;64741;41.730;44.788;2023-08-17T20:41:01;988.6;;;33.1;28.9
76046;BME280;64741;41.730;44.788;2023-08-17T20:45:46;988.6;;;33.1;28.8
76046;BME280;64741;41.730;44.788;2023-08-17T20:50:56;988.5;;;33.1;28.8
76046;BME280;64741;41.730;44.788;2023-08-17T20:55:56;988.6;;;33.1;28.9
76046;BME280;64741;41.730;44.788;2023-08-17T21:00:57;988.6;;;33.1;28.9
76046;BME280;64741;41.730;44.788;2023-08-17T21:05:44;988.6;;;33.1;29
76046;BME280;64741;41.730;44.788;2023-08-17T21:11:02;988.6;;;33.1;29
76046;BME280;64741;41.730;44.788;2023-08-17T21:16:02;988.6;;;33.1;29
76046;BME280;64741;41.730;44.788;2023-08-17T21:21:02;988.6;;;33;29
76046;BME280;64741;41.730;44.788;2023-08-17T21:25:34;988.6;;;33;29
76046;BME280;64741;41.730;44.788;2023-08-17T21:30:46;988.6;;;33;29
76046;BME280;64741;41.730;44.788;2023-08-17T21:36:00;988.6;;;33;29
76046;BME280;64741;41.730;44.788;2023-08-17T21:40:55;988.6;;;33;29
76046;BME280;64741;41.730;44.788;2023-08-17T21:45:58;988.6;;;33;29.2
76046;BME280;64741;41.730;44.788;2023-08-17T21:51:02;988.6;;;33;29.2
76046;BME280;64741;41.730;44.788;2023-08-17T21:56:02;988.6;;;33;29.3
76046;BME280;64741;41.730;44.788;2023-08-17T22:00:56;988.6;;;33;29.3
76046;BME280;64741;41.730;44.788;2023-08-17T22:06:02;988.7;;;32.9;29.3
76046;BME280;64741;41.730;44.788;2023-08-17T22:11:04;988.7;;;33;29.4
76046;BME280;64741;41.730;44.788;2023-08-17T22:16:00;988.7;;;32.9;29.4
76046;BME280;64741;41.730;44.788;2023-08-17T22:21:03;988.7;;;32.9;29.5
76046;BME280;64741;41.730;44.788;2023-08-17T22:25:56;988.8;;;32.9;29.5
76046;BME280;64741;41.730;44.788;2023-08-17T22:31:04;988.8;;;32.9;29.5
76046;BME280;64741;41.730;44.788;2023-08-17T22:35:58;988.8;;;32.9;29.6
76046;BME280;64741;41.730;44.788;2023-08-17T22:41:00;988.8;;;32.9;29.7
76046;BME280;64741;41.730;44.788;2023-08-17T22:45:58;988.8;;;32.9;29.8
76046;BME280;64741;41.730;44.788;2023-08-17T22:51:02;988.8;;;32.9;29.8
76046;BME280;64741;41.730;44.788;2023-08-17T22:56:04;988.8;;;32.9;29.8
76046;BME280;64741;41.730;44.788;2023-08-17T23:01:02;988.9;;;32.9;29.9
76046;BME280;64741;41.730;44.788;2023-08-17T23:05:52;988.9;;;32.9;30
76046;BME280;64741;41.730;44.788;2023-08-17T23:10:56;988.8;;;32.9;30.4
76046;BME280;64741;41.730;44.788;2023-08-17T23:15:44;988.9;;;32.8;30.1
76046;BME280;64741;41.730;44.788;2023-08-17T23:20:58;988.9;;;32.8;30.4
76046;BME280;64741;41.730;44.788;2023-08-17T23:26:02;988.9;;;32.7;30.5
76046;BME280;64741;41.730;44.788;2023-08-17T23:31:00;988.9;;;32.7;30.6
76046;BME280;64741;41.730;44.788;2023-08-17T23:35:58;988.9;;;32.7;30.7
76046;BME280;64741;41.730;44.788;2023-08-17T23:41:02;989;;;32.7;30.6
76046;BME280;64741;41.730;44.788;2023-08-17T23:46:02;989;;;32.7;30.8
76046;BME280;64741;41.730;44.788;2023-08-17T23:51:02;989;;;32.6;30.9
76046;BME280;64741;41.730;44.788;2023-08-17T23:56:00;989;;;32.5;31.2
